Station Historical Data
Daily Summary for June 6, 2017 Units:  Both    English   Metric
« Previous Day
Next Day »
Daily Weekly Monthly Yearly Custom
  High: Low: Average:
Temperature: 64.7 °F /  18.2 °C 51.2 °F /  10.7 °C 56.9 °F /  13.8 °C
Dew Point: 59.4 °F /  15.2 °C 48.9 °F /  9.4 °C 53.3 °F /  11.8 °C
Humidity: 92% 76% 88%
Wind Speed: 11.0mph /  17.7km/h - 3.2mph /  5.1km/h
Wind Gust: 16.0mph /  25.7km/h - -
Wind- - South
Pressure: 29.98 in /  1015.1 hPa 29.72 in /  1006.3 hPa -
Precipitation: 0.00 in /  0 mm    
Historical Graphs
 
 
Tabular Data for June 6, 2017
Time Temperature Dew Point Pressure Wind Wind Speed Wind Gust Humidity Rainfall Rate (Hourly)
00:04 58.3 °F /  14.6 °C 53.2 °F /  11.8 °C 29.76in /  1007.7hPa Calm   5.0mph /  8km/h 83% 0.00in /  0mm
00:09 58.3 °F /  14.6 °C 53.2 °F /  11.8 °C 29.76in /  1007.7hPa WNW 2.0mph /  3.2km/h 4.0mph /  6.4km/h 83% 0.00in /  0mm
00:14 58.2 °F /  14.6 °C 53.1 °F /  11.7 °C 29.76in /  1007.7hPa WSW 1.0mph /  1.6km/h 5.0mph /  8km/h 83% 0.00in /  0mm
00:19 58.2 °F /  14.6 °C 53.1 °F /  11.7 °C 29.76in /  1007.7hPa West 1.0mph /  1.6km/h 5.0mph /  8km/h 83% 0.00in /  0mm
00:24 58.2 °F /  14.6 °C 53.1 °F /  11.7 °C 29.75in /  1007.3hPa WSW 1.0mph /  1.6km/h 3.0mph /  4.8km/h 83% 0.00in /  0mm
00:29 58.1 °F /  14.5 °C 53.0 °F /  11.7 °C 29.75in /  1007.3hPa WSW 1.0mph /  1.6km/h 3.0mph /  4.8km/h 83% 0.00in /  0mm
00:34 58.0 °F /  14.4 °C 52.9 °F /  11.6 °C 29.75in /  1007.3hPa WSW 2.0mph /  3.2km/h 3.0mph /  4.8km/h 83% 0.00in /  0mm
00:39 57.9 °F /  14.4 °C 52.8 °F /  11.6 °C 29.75in /  1007.3hPa WSW 2.0mph /  3.2km/h 3.0mph /  4.8km/h 83% 0.00in /  0mm
00:44 57.8 °F /  14.3 °C 53.0 °F /  11.7 °C 29.75in /  1007.3hPa Calm   3.0mph /  4.8km/h 84% 0.00in /  0mm
00:49 57.6 °F /  14.2 °C 52.8 °F /  11.6 °C 29.75in /  1007.3hPa WSW 1.0mph /  1.6km/h 3.0mph /  4.8km/h 84% 0.00in /  0mm
00:54 57.5 °F /  14.2 °C 52.7 °F /  11.5 °C 29.75in /  1007.3hPa WSW 1.0mph /  1.6km/h 2.0mph /  3.2km/h 84% 0.00in /  0mm
00:59 57.5 °F /  14.2 °C 53.0 °F /  11.7 °C 29.74in /  1007hPa Calm   2.0mph /  3.2km/h 85% 0.00in /  0mm
01:04 57.5 °F /  14.2 °C 53.0 °F /  11.7 °C 29.74in /  1007hPa West 1.0mph /  1.6km/h 3.0mph /  4.8km/h 85% 0.00in /  0mm
01:09 57.6 °F /  14.2 °C 53.1 °F /  11.7 °C 29.74in /  1007hPa West 1.0mph /  1.6km/h 3.0mph /  4.8km/h 85% 0.00in /  0mm
01:14 57.6 °F /  14.2 °C 53.1 °F /  11.7 °C 29.74in /  1007hPa West 2.0mph /  3.2km/h 2.0mph /  3.2km/h 85% 0.00in /  0mm
01:19 57.6 °F /  14.2 °C 53.1 °F /  11.7 °C 29.74in /  1007hPa West 1.0mph /  1.6km/h 3.0mph /  4.8km/h 85% 0.00in /  0mm
01:24 57.5 °F /  14.2 °C 53.0 °F /  11.7 °C 29.74in /  1007hPa West 2.0mph /  3.2km/h 3.0mph /  4.8km/h 85% 0.00in /  0mm
01:29 57.6 °F /  14.2 °C 53.1 °F /  11.7 °C 29.74in /  1007hPa West 1.0mph /  1.6km/h 4.0mph /  6.4km/h 85% 0.00in /  0mm
01:34 57.6 °F /  14.2 °C 53.1 °F /  11.7 °C 29.74in /  1007hPa West 1.0mph /  1.6km/h 2.0mph /  3.2km/h 85% 0.00in /  0mm
01:39 57.6 °F /  14.2 °C 53.1 °F /  11.7 °C 29.74in /  1007hPa West 1.0mph /  1.6km/h 2.0mph /  3.2km/h 85% 0.00in /  0mm
01:44 57.6 °F /  14.2 °C 53.1 °F /  11.7 °C 29.74in /  1007hPa WNW 1.0mph /  1.6km/h 3.0mph /  4.8km/h 85% 0.00in /  0mm
01:49 57.6 °F /  14.2 °C 53.1 °F /  11.7 °C 29.74in /  1007hPa NW 1.0mph /  1.6km/h 5.0mph /  8km/h 85% 0.00in /  0mm
01:54 57.7 °F /  14.3 °C 53.2 °F /  11.8 °C 29.73in /  1006.7hPa NW 1.0mph /  1.6km/h 5.0mph /  8km/h 85% 0.00in /  0mm
01:59 57.7 °F /  14.3 °C 52.9 °F /  11.6 °C 29.74in /  1007hPa NW 2.0mph /  3.2km/h 5.0mph /  8km/h 84% 0.00in /  0mm
02:04 57.6 °F /  14.2 °C 52.8 °F /  11.6 °C 29.73in /  1006.7hPa NW 2.0mph /  3.2km/h 5.0mph /  8km/h 84% 0.00in /  0mm
02:09 57.6 °F /  14.2 °C 52.8 °F /  11.6 °C 29.73in /  1006.7hPa WNW 1.0mph /  1.6km/h 4.0mph /  6.4km/h 84% 0.00in /  0mm
02:14 57.6 °F /  14.2 °C 53.1 °F /  11.7 °C 29.73in /  1006.7hPa WNW 1.0mph /  1.6km/h 3.0mph /  4.8km/h 85% 0.00in /  0mm
02:19 57.6 °F /  14.2 °C 53.1 °F /  11.7 °C 29.73in /  1006.7hPa WNW 1.0mph /  1.6km/h 3.0mph /  4.8km/h 85% 0.00in /  0mm
02:24 57.6 °F /  14.2 °C 53.1 °F /  11.7 °C 29.73in /  1006.7hPa WNW 1.0mph /  1.6km/h 3.0mph /  4.8km/h 85% 0.00in /  0mm
02:29 57.6 °F /  14.2 °C 53.1 °F /  11.7 °C 29.73in /  1006.7hPa WNW 1.0mph /  1.6km/h 3.0mph /  4.8km/h 85% 0.00in /  0mm
02:34 57.6 °F /  14.2 °C 53.1 °F /  11.7 °C 29.73in /  1006.7hPa WNW 2.0mph /  3.2km/h 3.0mph /  4.8km/h 85% 0.00in /  0mm
02:39 57.5 °F /  14.2 °C 53.0 °F /  11.7 °C 29.73in /  1006.7hPa WNW 2.0mph /  3.2km/h 4.0mph /  6.4km/h 85% 0.00in /  0mm
02:44 57.5 °F /  14.2 °C 53.0 °F /  11.7 °C 29.73in /  1006.7hPa WNW 3.0mph /  4.8km/h 5.0mph /  8km/h 85% 0.00in /  0mm
02:49 57.4 °F /  14.1 °C 52.9 °F /  11.6 °C 29.73in /  1006.7hPa WNW 2.0mph /  3.2km/h 6.0mph /  9.7km/h 85% 0.00in /  0mm
02:54 57.3 °F /  14.1 °C 52.8 °F /  11.6 °C 29.73in /  1006.7hPa WNW 2.0mph /  3.2km/h 6.0mph /  9.7km/h 85% 0.00in /  0mm
02:59 57.3 °F /  14.1 °C 53.1 °F /  11.7 °C 29.73in /  1006.7hPa WNW 1.0mph /  1.6km/h 4.0mph /  6.4km/h 86% 0.00in /  0mm
03:04 57.4 °F /  14.1 °C 53.2 °F /  11.8 °C 29.73in /  1006.7hPa WNW 1.0mph /  1.6km/h 5.0mph /  8km/h 86% 0.00in /  0mm
03:09 57.4 °F /  14.1 °C 53.2 °F /  11.8 °C 29.73in /  1006.7hPa WNW 2.0mph /  3.2km/h 5.0mph /  8km/h 86% 0.00in /  0mm
03:14 57.3 °F /  14.1 °C 53.1 °F /  11.7 °C 29.73in /  1006.7hPa WNW 3.0mph /  4.8km/h 6.0mph /  9.7km/h 86% 0.00in /  0mm
03:19 57.3 °F /  14.1 °C 53.1 °F /  11.7 °C 29.73in /  1006.7hPa West 1.0mph /  1.6km/h 5.0mph /  8km/h 86% 0.00in /  0mm
03:24 57.3 °F /  14.1 °C 53.1 °F /  11.7 °C 29.73in /  1006.7hPa WNW 1.0mph /  1.6km/h 5.0mph /  8km/h 86% 0.00in /  0mm
03:29 57.3 °F /  14.1 °C 53.1 °F /  11.7 °C 29.73in /  1006.7hPa WNW 1.0mph /  1.6km/h 6.0mph /  9.7km/h 86% 0.00in /  0mm
03:34 57.2 °F /  14 °C 53.0 °F /  11.7 °C 29.73in /  1006.7hPa WNW 2.0mph /  3.2km/h 6.0mph /  9.7km/h 86% 0.00in /  0mm
03:39 57.1 °F /  13.9 °C 53.0 °F /  11.7 °C 29.73in /  1006.7hPa WNW 2.0mph /  3.2km/h 6.0mph /  9.7km/h 86% 0.00in /  0mm
03:44 57.1 °F /  13.9 °C 53.0 °F /  11.7 °C 29.73in /  1006.7hPa WNW 2.0mph /  3.2km/h 4.0mph /  6.4km/h 86% 0.00in /  0mm
03:49 57.1 °F /  13.9 °C 53.0 °F /  11.7 °C 29.73in /  1006.7hPa WNW 2.0mph /  3.2km/h 7.0mph /  11.3km/h 86% 0.00in /  0mm
03:54 57.1 °F /  13.9 °C 53.0 °F /  11.7 °C 29.73in /  1006.7hPa West 3.0mph /  4.8km/h 7.0mph /  11.3km/h 86% 0.00in /  0mm
03:59 57.0 °F /  13.9 °C 52.9 °F /  11.6 °C 29.73in /  1006.7hPa West 3.0mph /  4.8km/h 6.0mph /  9.7km/h 86% 0.00in /  0mm
04:04 57.0 °F /  13.9 °C 52.9 °F /  11.6 °C 29.73in /  1006.7hPa West 3.0mph /  4.8km/h 6.0mph /  9.7km/h 86% 0.00in /  0mm
04:09 56.9 °F /  13.8 °C 52.8 °F /  11.6 °C 29.73in /  1006.7hPa West 3.0mph /  4.8km/h 7.0mph /  11.3km/h 86% 0.00in /  0mm
04:14 56.7 °F /  13.7 °C 52.9 °F /  11.6 °C 29.73in /  1006.7hPa West 3.0mph /  4.8km/h 7.0mph /  11.3km/h 87% 0.00in /  0mm
04:19 56.6 °F /  13.7 °C 52.8 °F /  11.6 °C 29.73in /  1006.7hPa WNW 1.0mph /  1.6km/h 4.0mph /  6.4km/h 87% 0.00in /  0mm
04:24 56.5 °F /  13.6 °C 53.0 °F /  11.7 °C 29.73in /  1006.7hPa Calm   3.0mph /  4.8km/h 88% 0.00in /  0mm
04:29 56.5 °F /  13.6 °C 53.0 °F /  11.7 °C 29.73in /  1006.7hPa West 3.0mph /  4.8km/h 5.0mph /  8km/h 88% 0.01in /  0.25mm
04:34 56.4 °F /  13.6 °C 53.2 °F /  11.8 °C 29.73in /  1006.7hPa West 1.0mph /  1.6km/h 5.0mph /  8km/h 89% 0.01in /  0.25mm
04:39 56.3 °F /  13.5 °C 53.1 °F /  11.7 °C 29.73in /  1006.7hPa West 2.0mph /  3.2km/h 7.0mph /  11.3km/h 89% 0.01in /  0.25mm
04:44 56.3 °F /  13.5 °C 53.1 °F /  11.7 °C 29.73in /  1006.7hPa West 2.0mph /  3.2km/h 5.0mph /  8km/h 89% 0.01in /  0.25mm
04:49 56.2 °F /  13.4 °C 53.0 °F /  11.7 °C 29.73in /  1006.7hPa West 2.0mph /  3.2km/h 5.0mph /  8km/h 89% 0.01in /  0.25mm
04:54 56.3 °F /  13.5 °C 53.1 °F /  11.7 °C 29.73in /  1006.7hPa West 2.0mph /  3.2km/h 4.0mph /  6.4km/h 89% 0.01in /  0.25mm
04:59 56.2 °F /  13.4 °C 53.0 °F /  11.7 °C 29.73in /  1006.7hPa West 3.0mph /  4.8km/h 6.0mph /  9.7km/h 89% 0.01in /  0.25mm
05:04 56.2 °F /  13.4 °C 53.0 °F /  11.7 °C 29.73in /  1006.7hPa NW 4.0mph /  6.4km/h 6.0mph /  9.7km/h 89% 0.01in /  0.25mm
05:09 56.2 °F /  13.4 °C 53.3 °F /  11.8 °C 29.73in /  1006.7hPa WNW 3.0mph /  4.8km/h 6.0mph /  9.7km/h 90% 0.01in /  0.25mm
05:14 56.1 °F /  13.4 °C 53.2 °F /  11.8 °C 29.73in /  1006.7hPa WNW 4.0mph /  6.4km/h 6.0mph /  9.7km/h 90% 0.01in /  0.25mm
05:19 56.0 °F /  13.3 °C 53.1 °F /  11.7 °C 29.73in /  1006.7hPa WNW 3.0mph /  4.8km/h 6.0mph /  9.7km/h 90% 0.01in /  0.25mm
05:24 56.0 °F /  13.3 °C 53.1 °F /  11.7 °C 29.73in /  1006.7hPa WNW 3.0mph /  4.8km/h 6.0mph /  9.7km/h 90% 0.00in /  0mm
05:29 56.0 °F /  13.3 °C 53.1 °F /  11.7 °C 29.73in /  1006.7hPa WNW 3.0mph /  4.8km/h 6.0mph /  9.7km/h 90% 0.00in /  0mm
05:34 56.0 °F /  13.3 °C 53.1 °F /  11.7 °C 29.73in /  1006.7hPa WNW 3.0mph /  4.8km/h 6.0mph /  9.7km/h 90% 0.00in /  0mm
05:39 56.0 °F /  13.3 °C 53.1 °F /  11.7 °C 29.72in /  1006.3hPa WNW 3.0mph /  4.8km/h 6.0mph /  9.7km/h 90% 0.00in /  0mm
05:44 55.9 °F /  13.3 °C 53.0 °F /  11.7 °C 29.73in /  1006.7hPa Calm   4.0mph /  6.4km/h 90% 0.00in /  0mm
05:49 56.0 °F /  13.3 °C 53.1 °F /  11.7 °C 29.73in /  1006.7hPa West 5.0mph /  8km/h 5.0mph /  8km/h 90% 0.00in /  0mm
05:54 56.0 °F /  13.3 °C 53.1 °F /  11.7 °C 29.73in /  1006.7hPa WNW 4.0mph /  6.4km/h 6.0mph /  9.7km/h 90% 0.00in /  0mm
05:59 56.0 °F /  13.3 °C 53.1 °F /  11.7 °C 29.73in /  1006.7hPa West 6.0mph /  9.7km/h 6.0mph /  9.7km/h 90% 0.00in /  0mm
06:04 56.0 °F /  13.3 °C 53.1 °F /  11.7 °C 29.73in /  1006.7hPa WNW 2.0mph /  3.2km/h 7.0mph /  11.3km/h 90% 0.00in /  0mm
06:09 56.0 °F /  13.3 °C 53.1 °F /  11.7 °C 29.73in /  1006.7hPa West 2.0mph /  3.2km/h 6.0mph /  9.7km/h 90% 0.00in /  0mm
06:14 56.0 °F /  13.3 °C 53.4 °F /  11.9 °C 29.73in /  1006.7hPa WNW 4.0mph /  6.4km/h 7.0mph /  11.3km/h 91% 0.00in /  0mm
06:19 56.1 °F /  13.4 °C 53.5 °F /  11.9 °C 29.73in /  1006.7hPa West 4.0mph /  6.4km/h 5.0mph /  8km/h 91% 0.00in /  0mm
06:24 56.1 °F /  13.4 °C 53.5 °F /  11.9 °C 29.74in /  1007hPa WNW 3.0mph /  4.8km/h 7.0mph /  11.3km/h 91% 0.00in /  0mm
06:29 56.0 °F /  13.3 °C 53.4 °F /  11.9 °C 29.74in /  1007hPa WNW 4.0mph /  6.4km/h 10.0mph /  16.1km/h 91% 0.00in /  0mm
06:34 56.1 °F /  13.4 °C 53.5 °F /  11.9 °C 29.74in /  1007hPa WNW 4.0mph /  6.4km/h 10.0mph /  16.1km/h 91% 0.00in /  0mm
06:39 56.2 °F /  13.4 °C 53.6 °F /  12 °C 29.74in /  1007hPa WNW 2.0mph /  3.2km/h 6.0mph /  9.7km/h 91% 0.00in /  0mm
06:44 56.1 °F /  13.4 °C 53.5 °F /  11.9 °C 29.74in /  1007hPa NW 4.0mph /  6.4km/h 7.0mph /  11.3km/h 91% 0.00in /  0mm
06:49 56.1 °F /  13.4 °C 53.5 °F /  11.9 °C 29.74in /  1007hPa WNW 4.0mph /  6.4km/h 7.0mph /  11.3km/h 91% 0.00in /  0mm
06:54 56.0 °F /  13.3 °C 53.4 °F /  11.9 °C 29.74in /  1007hPa WNW 3.0mph /  4.8km/h 7.0mph /  11.3km/h 91% 0.00in /  0mm
06:59 56.2 °F /  13.4 °C 53.6 °F /  12 °C 29.74in /  1007hPa West 2.0mph /  3.2km/h 6.0mph /  9.7km/h 91% 0.00in /  0mm
07:04 56.2 °F /  13.4 °C 53.6 °F /  12 °C 29.74in /  1007hPa WNW 1.0mph /  1.6km/h 6.0mph /  9.7km/h 91% 0.00in /  0mm
07:09 56.2 °F /  13.4 °C 53.6 °F /  12 °C 29.74in /  1007hPa WNW 2.0mph /  3.2km/h 6.0mph /  9.7km/h 91% 0.00in /  0mm
07:14 56.3 °F /  13.5 °C 53.7 °F /  12.1 °C 29.74in /  1007hPa West 3.0mph /  4.8km/h 8.0mph /  12.9km/h 91% 0.00in /  0mm
07:19 56.3 °F /  13.5 °C 53.7 °F /  12.1 °C 29.74in /  1007hPa West 2.0mph /  3.2km/h 5.0mph /  8km/h 91% 0.00in /  0mm
07:24 56.4 °F /  13.6 °C 53.8 °F /  12.1 °C 29.75in /  1007.3hPa West 3.0mph /  4.8km/h 6.0mph /  9.7km/h 91% 0.00in /  0mm
07:29 56.5 °F /  13.6 °C 53.9 °F /  12.2 °C 29.75in /  1007.3hPa West 3.0mph /  4.8km/h 6.0mph /  9.7km/h 91% 0.00in /  0mm
07:34 56.6 °F /  13.7 °C 54.0 °F /  12.2 °C 29.75in /  1007.3hPa West 2.0mph /  3.2km/h 6.0mph /  9.7km/h 91% 0.00in /  0mm
07:39 56.7 °F /  13.7 °C 54.1 °F /  12.3 °C 29.75in /  1007.3hPa West 2.0mph /  3.2km/h 5.0mph /  8km/h 91% 0.00in /  0mm
07:44 56.7 °F /  13.7 °C 54.1 °F /  12.3 °C 29.75in /  1007.3hPa West 2.0mph /  3.2km/h 6.0mph /  9.7km/h 91% 0.00in /  0mm
07:49 56.6 °F /  13.7 °C 54.0 °F /  12.2 °C 29.75in /  1007.3hPa West 2.0mph /  3.2km/h 6.0mph /  9.7km/h 91% 0.00in /  0mm
07:54 56.5 °F /  13.6 °C 53.9 °F /  12.2 °C 29.75in /  1007.3hPa WSW 2.0mph /  3.2km/h 6.0mph /  9.7km/h 91% 0.01in /  0.25mm
07:59 56.5 °F /  13.6 °C 53.9 °F /  12.2 °C 29.75in /  1007.3hPa West 4.0mph /  6.4km/h 5.0mph /  8km/h 91% 0.01in /  0.25mm
08:04 56.4 °F /  13.6 °C 54.1 °F /  12.3 °C 29.75in /  1007.3hPa WNW 2.0mph /  3.2km/h 6.0mph /  9.7km/h 92% 0.01in /  0.25mm
08:09 56.4 °F /  13.6 °C 53.8 °F /  12.1 °C 29.75in /  1007.3hPa West 3.0mph /  4.8km/h 5.0mph /  8km/h 91% 0.01in /  0.25mm
08:14 56.4 °F /  13.6 °C 54.1 °F /  12.3 °C 29.75in /  1007.3hPa West 2.0mph /  3.2km/h 7.0mph /  11.3km/h 92% 0.01in /  0.25mm
08:19 56.6 °F /  13.7 °C 54.3 °F /  12.4 °C 29.76in /  1007.7hPa West 3.0mph /  4.8km/h 7.0mph /  11.3km/h 92% 0.01in /  0.25mm
08:24 56.6 °F /  13.7 °C 54.3 °F /  12.4 °C 29.76in /  1007.7hPa WNW 3.0mph /  4.8km/h 7.0mph /  11.3km/h 92% 0.01in /  0.25mm
08:29 56.7 °F /  13.7 °C 54.4 °F /  12.4 °C 29.76in /  1007.7hPa WNW 3.0mph /  4.8km/h 7.0mph /  11.3km/h 92% 0.01in /  0.25mm
08:34 56.7 °F /  13.7 °C 54.4 °F /  12.4 °C 29.76in /  1007.7hPa WNW 2.0mph /  3.2km/h 6.0mph /  9.7km/h 92% 0.01in /  0.25mm
08:39 56.7 °F /  13.7 °C 54.4 °F /  12.4 °C 29.76in /  1007.7hPa NW 4.0mph /  6.4km/h 6.0mph /  9.7km/h 92% 0.01in /  0.25mm
08:44 56.8 °F /  13.8 °C 54.5 °F /  12.5 °C 29.76in /  1007.7hPa West 2.0mph /  3.2km/h 6.0mph /  9.7km/h 92% 0.01in /  0.25mm
08:49 56.9 °F /  13.8 °C 54.6 °F /  12.6 °C 29.76in /  1007.7hPa West 3.0mph /  4.8km/h 6.0mph /  9.7km/h 92% 0.02in /  0.51mm
08:54 57.0 °F /  13.9 °C 54.7 °F /  12.6 °C 29.76in /  1007.7hPa West 2.0mph /  3.2km/h 6.0mph /  9.7km/h 92% 0.01in /  0.25mm
08:59 57.1 °F /  13.9 °C 54.8 °F /  12.7 °C 29.76in /  1007.7hPa West 2.0mph /  3.2km/h 6.0mph /  9.7km/h 92% 0.01in /  0.25mm
09:04 57.3 °F /  14.1 °C 55.0 °F /  12.8 °C 29.76in /  1007.7hPa West 2.0mph /  3.2km/h 6.0mph /  9.7km/h 92% 0.01in /  0.25mm
09:09 57.5 °F /  14.2 °C 55.2 °F /  12.9 °C 29.77in /  1008hPa West 3.0mph /  4.8km/h 8.0mph /  12.9km/h 92% 0.01in /  0.25mm
09:14 57.5 °F /  14.2 °C 55.2 °F /  12.9 °C 29.76in /  1007.7hPa WNW 2.0mph /  3.2km/h 7.0mph /  11.3km/h 92% 0.01in /  0.25mm
09:19 57.5 °F /  14.2 °C 54.9 °F /  12.7 °C 29.77in /  1008hPa WNW 3.0mph /  4.8km/h 7.0mph /  11.3km/h 91% 0.01in /  0.25mm
09:24 57.5 °F /  14.2 °C 54.9 °F /  12.7 °C 29.77in /  1008hPa WNW 2.0mph /  3.2km/h 5.0mph /  8km/h 91% 0.01in /  0.25mm
09:29 57.5 °F /  14.2 °C 54.9 °F /  12.7 °C 29.76in /  1007.7hPa WNW 4.0mph /  6.4km/h 7.0mph /  11.3km/h 91% 0.01in /  0.25mm
09:34 57.8 °F /  14.3 °C 55.2 °F /  12.9 °C 29.77in /  1008hPa West 5.0mph /  8km/h 6.0mph /  9.7km/h 91% 0.01in /  0.25mm
09:39 58.2 °F /  14.6 °C 55.3 °F /  12.9 °C 29.77in /  1008hPa West 2.0mph /  3.2km/h 7.0mph /  11.3km/h 90% 0.01in /  0.25mm
09:44 58.7 °F /  14.8 °C 55.5 °F /  13.1 °C 29.77in /  1008hPa West 4.0mph /  6.4km/h 7.0mph /  11.3km/h 89% 0.01in /  0.25mm
09:49 58.4 °F /  14.7 °C 55.2 °F /  12.9 °C 29.76in /  1007.7hPa WNW 4.0mph /  6.4km/h 8.0mph /  12.9km/h 89% 0.00in /  0mm
09:54 58.5 °F /  14.7 °C 55.3 °F /  12.9 °C 29.77in /  1008hPa WNW 3.0mph /  4.8km/h 8.0mph /  12.9km/h 89% 0.00in /  0mm
09:59 58.3 °F /  14.6 °C 55.1 °F /  12.8 °C 29.76in /  1007.7hPa WNW 4.0mph /  6.4km/h 7.0mph /  11.3km/h 89% 0.00in /  0mm
10:04 58.6 °F /  14.8 °C 55.4 °F /  13 °C 29.77in /  1008hPa WNW 4.0mph /  6.4km/h 7.0mph /  11.3km/h 89% 0.00in /  0mm
10:09 58.9 °F /  14.9 °C 55.7 °F /  13.2 °C 29.77in /  1008hPa NW 3.0mph /  4.8km/h 6.0mph /  9.7km/h 89% 0.00in /  0mm
10:14 58.8 °F /  14.9 °C 55.3 °F /  12.9 °C 29.77in /  1008hPa NNW 1.0mph /  1.6km/h 5.0mph /  8km/h 88% 0.00in /  0mm
10:19 58.3 °F /  14.6 °C 55.1 °F /  12.8 °C 29.77in /  1008hPa NW 3.0mph /  4.8km/h 8.0mph /  12.9km/h 89% 0.00in /  0mm
10:24 58.1 °F /  14.5 °C 55.2 °F /  12.9 °C 29.77in /  1008hPa West 3.0mph /  4.8km/h 7.0mph /  11.3km/h 90% 0.00in /  0mm
10:29 58.2 °F /  14.6 °C 55.3 °F /  12.9 °C 29.77in /  1008hPa NW 6.0mph /  9.7km/h 8.0mph /  12.9km/h 90% 0.00in /  0mm
10:34 58.2 °F /  14.6 °C 55.3 °F /  12.9 °C 29.77in /  1008hPa West 6.0mph /  9.7km/h 7.0mph /  11.3km/h 90% 0.00in /  0mm
10:39 58.4 °F /  14.7 °C 55.5 °F /  13.1 °C 29.77in /  1008hPa West 4.0mph /  6.4km/h 8.0mph /  12.9km/h 90% 0.01in /  0.25mm
10:44 58.5 °F /  14.7 °C 55.9 °F /  13.3 °C 29.77in /  1008hPa NW 3.0mph /  4.8km/h 5.0mph /  8km/h 91% 0.02in /  0.51mm
10:49 58.6 °F /  14.8 °C 56.0 °F /  13.3 °C 29.77in /  1008hPa WNW 3.0mph /  4.8km/h 7.0mph /  11.3km/h 91% 0.02in /  0.51mm
10:54 58.8 °F /  14.9 °C 55.9 °F /  13.3 °C 29.77in /  1008hPa WNW 4.0mph /  6.4km/h 7.0mph /  11.3km/h 90% 0.02in /  0.51mm
10:59 59.7 °F /  15.4 °C 57.1 °F /  13.9 °C 29.77in /  1008hPa West 4.0mph /  6.4km/h 8.0mph /  12.9km/h 91% 0.02in /  0.51mm
11:04 60.4 °F /  15.8 °C 57.1 °F /  13.9 °C 29.77in /  1008hPa West 4.0mph /  6.4km/h 8.0mph /  12.9km/h 89% 0.02in /  0.51mm
11:09 60.3 °F /  15.7 °C 56.7 °F /  13.7 °C 29.77in /  1008hPa WNW 2.0mph /  3.2km/h 6.0mph /  9.7km/h 88% 0.02in /  0.51mm
11:14 60.0 °F /  15.6 °C 56.4 °F /  13.6 °C 29.77in /  1008hPa Calm   5.0mph /  8km/h 88% 0.02in /  0.51mm
11:19 61.0 °F /  16.1 °C 57.7 °F /  14.3 °C 29.77in /  1008hPa West 2.0mph /  3.2km/h 7.0mph /  11.3km/h 89% 0.02in /  0.51mm
11:24 60.7 °F /  15.9 °C 56.5 °F /  13.6 °C 29.77in /  1008hPa WNW 4.0mph /  6.4km/h 10.0mph /  16.1km/h 86% 0.02in /  0.51mm
11:29 60.0 °F /  15.6 °C 55.8 °F /  13.2 °C 29.77in /  1008hPa NW 2.0mph /  3.2km/h 8.0mph /  12.9km/h 86% 0.02in /  0.51mm
11:34 62.0 °F /  16.7 °C 58.4 °F /  14.7 °C 29.77in /  1008hPa WNW 6.0mph /  9.7km/h 8.0mph /  12.9km/h 88% 0.02in /  0.51mm
11:39 62.7 °F /  17.1 °C 58.1 °F /  14.5 °C 29.77in /  1008hPa West 4.0mph /  6.4km/h 8.0mph /  12.9km/h 85% 0.01in /  0.25mm
11:44 62.2 °F /  16.8 °C 57.3 °F /  14.1 °C 29.77in /  1008hPa NW 2.0mph /  3.2km/h 7.0mph /  11.3km/h 84% 0.00in /  0mm
11:49 62.2 °F /  16.8 °C 56.6 °F /  13.7 °C 29.77in /  1008hPa NW 3.0mph /  4.8km/h 8.0mph /  12.9km/h 82% 0.00in /  0mm
11:54 63.4 °F /  17.4 °C 57.8 °F /  14.3 °C 29.77in /  1008hPa NW 3.0mph /  4.8km/h 8.0mph /  12.9km/h 82% 0.00in /  0mm
11:59 64.1 °F /  17.8 °C 58.1 °F /  14.5 °C 29.77in /  1008hPa NNW 3.0mph /  4.8km/h 7.0mph /  11.3km/h 81% 0.00in /  0mm
12:04 63.5 °F /  17.5 °C 57.6 °F /  14.2 °C 29.77in /  1008hPa NNW 3.0mph /  4.8km/h 7.0mph /  11.3km/h 81% 0.00in /  0mm
12:09 62.9 °F /  17.2 °C 57.0 °F /  13.9 °C 29.77in /  1008hPa NW 2.0mph /  3.2km/h 5.0mph /  8km/h 81% 0.00in /  0mm
12:14 62.8 °F /  17.1 °C 56.5 °F /  13.6 °C 29.77in /  1008hPa NNW 5.0mph /  8km/h 7.0mph /  11.3km/h 80% 0.00in /  0mm
12:19 62.9 °F /  17.2 °C 56.6 °F /  13.7 °C 29.77in /  1008hPa NNW 4.0mph /  6.4km/h 9.0mph /  14.5km/h 80% 0.00in /  0mm
12:24 63.2 °F /  17.3 °C 56.9 °F /  13.8 °C 29.77in /  1008hPa NNW 3.0mph /  4.8km/h 9.0mph /  14.5km/h 80% 0.00in /  0mm
12:29 62.7 °F /  17.1 °C 55.0 °F /  12.8 °C 29.77in /  1008hPa NNW 4.0mph /  6.4km/h 9.0mph /  14.5km/h 76% 0.00in /  0mm
12:34 62.7 °F /  17.1 °C 56.1 °F /  13.4 °C 29.78in /  1008.4hPa NNW 4.0mph /  6.4km/h 9.0mph /  14.5km/h 79% 0.00in /  0mm
12:39 61.2 °F /  16.2 °C 55.7 °F /  13.2 °C 29.78in /  1008.4hPa NNW 4.0mph /  6.4km/h 10.0mph /  16.1km/h 82% 0.00in /  0mm
12:44 60.7 °F /  15.9 °C 56.5 °F /  13.6 °C 29.78in /  1008.4hPa North 2.0mph /  3.2km/h 8.0mph /  12.9km/h 86% 0.00in /  0mm
12:49 60.9 °F /  16.1 °C 57.0 °F /  13.9 °C 29.78in /  1008.4hPa NNW 7.0mph /  11.3km/h 8.0mph /  12.9km/h 87% 0.00in /  0mm
12:54 61.3 °F /  16.3 °C 57.7 °F /  14.3 °C 29.78in /  1008.4hPa NNW 4.0mph /  6.4km/h 8.0mph /  12.9km/h 88% 0.00in /  0mm
12:59 62.5 °F /  16.9 °C 59.2 °F /  15.1 °C 29.78in /  1008.4hPa West 1.0mph /  1.6km/h 6.0mph /  9.7km/h 89% 0.00in /  0mm
13:04 63.7 °F /  17.6 °C 59.4 °F /  15.2 °C 29.78in /  1008.4hPa NW 3.0mph /  4.8km/h 6.0mph /  9.7km/h 86% 0.00in /  0mm
13:09 63.3 °F /  17.4 °C 57.7 °F /  14.3 °C 29.78in /  1008.4hPa NNW 2.0mph /  3.2km/h 8.0mph /  12.9km/h 82% 0.00in /  0mm
13:14 62.1 °F /  16.7 °C 57.2 °F /  14 °C 29.78in /  1008.4hPa NE 1.0mph /  1.6km/h 7.0mph /  11.3km/h 84% 0.00in /  0mm
13:19 62.0 °F /  16.7 °C 57.8 °F /  14.3 °C 29.78in /  1008.4hPa Calm   6.0mph /  9.7km/h 86% 0.00in /  0mm
13:24 62.0 °F /  16.7 °C 57.4 °F /  14.1 °C 29.78in /  1008.4hPa NNW 2.0mph /  3.2km/h 6.0mph /  9.7km/h 85% 0.00in /  0mm
13:29 61.8 °F /  16.6 °C 56.9 °F /  13.8 °C 29.78in /  1008.4hPa North 3.0mph /  4.8km/h 7.0mph /  11.3km/h 84% 0.00in /  0mm
13:34 61.8 °F /  16.6 °C 57.2 °F /  14 °C 29.78in /  1008.4hPa North 4.0mph /  6.4km/h 12.0mph /  19.3km/h 85% 0.00in /  0mm
13:39 63.2 °F /  17.3 °C 58.9 °F /  14.9 °C 29.78in /  1008.4hPa NNW 4.0mph /  6.4km/h 12.0mph /  19.3km/h 86% 0.00in /  0mm
13:44 63.2 °F /  17.3 °C 57.6 °F /  14.2 °C 29.78in /  1008.4hPa North 3.0mph /  4.8km/h 8.0mph /  12.9km/h 82% 0.00in /  0mm
13:49 62.7 °F /  17.1 °C 57.1 °F /  13.9 °C 29.78in /  1008.4hPa NNW 4.0mph /  6.4km/h 9.0mph /  14.5km/h 82% 0.00in /  0mm
13:54 62.3 °F /  16.8 °C 57.1 °F /  13.9 °C 29.78in /  1008.4hPa NNW 4.0mph /  6.4km/h 9.0mph /  14.5km/h 83% 0.00in /  0mm
13:59 62.4 °F /  16.9 °C 57.8 °F /  14.3 °C 29.78in /  1008.4hPa East 3.0mph /  4.8km/h 10.0mph /  16.1km/h 85% 0.00in /  0mm
14:04 61.4 °F /  16.3 °C 56.5 °F /  13.6 °C 29.78in /  1008.4hPa North 3.0mph /  4.8km/h 10.0mph /  16.1km/h 84% 0.00in /  0mm
14:09 61.4 °F /  16.3 °C 56.5 °F /  13.6 °C 29.79in /  1008.7hPa North 1.0mph /  1.6km/h 11.0mph /  17.7km/h 84% 0.00in /  0mm
14:14 62.9 °F /  17.2 °C 57.7 °F /  14.3 °C 29.78in /  1008.4hPa NNE 3.0mph /  4.8km/h 11.0mph /  17.7km/h 83% 0.00in /  0mm
14:19 63.2 °F /  17.3 °C 57.6 °F /  14.2 °C 29.78in /  1008.4hPa NNE 2.0mph /  3.2km/h 10.0mph /  16.1km/h 82% 0.00in /  0mm
14:24 64.3 °F /  17.9 °C 58.7 °F /  14.8 °C 29.78in /  1008.4hPa North 4.0mph /  6.4km/h 10.0mph /  16.1km/h 82% 0.00in /  0mm
14:29 64.7 °F /  18.2 °C 59.1 °F /  15.1 °C 29.79in /  1008.7hPa NNE 4.0mph /  6.4km/h 8.0mph /  12.9km/h 82% 0.00in /  0mm
14:34 63.6 °F /  17.6 °C 57.3 °F /  14.1 °C 29.79in /  1008.7hPa North 4.0mph /  6.4km/h 12.0mph /  19.3km/h 80% 0.00in /  0mm
14:39 62.2 °F /  16.8 °C 56.6 °F /  13.7 °C 29.79in /  1008.7hPa North 4.0mph /  6.4km/h 12.0mph /  19.3km/h 82% 0.00in /  0mm
14:44 61.0 °F /  16.1 °C 56.5 °F /  13.6 °C 29.79in /  1008.7hPa North 4.0mph /  6.4km/h 12.0mph /  19.3km/h 85% 0.00in /  0mm
14:49 60.2 °F /  15.7 °C 56.3 °F /  13.5 °C 29.80in /  1009hPa North 5.0mph /  8km/h 10.0mph /  16.1km/h 87% 0.00in /  0mm
14:54 59.2 °F /  15.1 °C 55.6 °F /  13.1 °C 29.80in /  1009hPa North 4.0mph /  6.4km/h 10.0mph /  16.1km/h 88% 0.01in /  0.25mm
14:59 58.6 °F /  14.8 °C 55.1 °F /  12.8 °C 29.80in /  1009hPa NNE 4.0mph /  6.4km/h 9.0mph /  14.5km/h 88% 0.01in /  0.25mm
15:04 58.5 °F /  14.7 °C 55.0 °F /  12.8 °C 29.81in /  1009.4hPa NE 6.0mph /  9.7km/h 11.0mph /  17.7km/h 88% 0.01in /  0.25mm
15:09 58.6 °F /  14.8 °C 55.1 °F /  12.8 °C 29.81in /  1009.4hPa NE 4.0mph /  6.4km/h 9.0mph /  14.5km/h 88% 0.01in /  0.25mm
15:14 58.9 °F /  14.9 °C 55.0 °F /  12.8 °C 29.81in /  1009.4hPa NE 4.0mph /  6.4km/h 16.0mph /  25.7km/h 87% 0.01in /  0.25mm
15:19 59.5 °F /  15.3 °C 55.6 °F /  13.1 °C 29.81in /  1009.4hPa North 4.0mph /  6.4km/h 11.0mph /  17.7km/h 87% 0.01in /  0.25mm
15:24 60.5 °F /  15.8 °C 56.9 °F /  13.8 °C 29.81in /  1009.4hPa NE 3.0mph /  4.8km/h 11.0mph /  17.7km/h 88% 0.01in /  0.25mm
15:29 61.0 °F /  16.1 °C 55.5 °F /  13.1 °C 29.82in /  1009.7hPa NE 4.0mph /  6.4km/h 11.0mph /  17.7km/h 82% 0.01in /  0.25mm
15:34 59.7 °F /  15.4 °C 54.5 °F /  12.5 °C 29.82in /  1009.7hPa NNE 5.0mph /  8km/h 11.0mph /  17.7km/h 83% 0.01in /  0.25mm
15:39 58.8 °F /  14.9 °C 53.6 °F /  12 °C 29.82in /  1009.7hPa NE 8.0mph /  12.9km/h 9.0mph /  14.5km/h 83% 0.01in /  0.25mm
15:44 58.5 °F /  14.7 °C 53.4 °F /  11.9 °C 29.82in /  1009.7hPa North 4.0mph /  6.4km/h 14.0mph /  22.5km/h 83% 0.01in /  0.25mm
15:49 58.0 °F /  14.4 °C 53.2 °F /  11.8 °C 29.82in /  1009.7hPa NNE 2.0mph /  3.2km/h 11.0mph /  17.7km/h 84% 0.01in /  0.25mm
15:54 57.7 °F /  14.3 °C 52.9 °F /  11.6 °C 29.83in /  1010hPa NE 5.0mph /  8km/h 11.0mph /  17.7km/h 84% 0.00in /  0mm
15:59 57.7 °F /  14.3 °C 52.9 °F /  11.6 °C 29.83in /  1010hPa NE 4.0mph /  6.4km/h 16.0mph /  25.7km/h 84% 0.00in /  0mm
16:04 57.5 °F /  14.2 °C 52.7 °F /  11.5 °C 29.83in /  1010hPa NE 4.0mph /  6.4km/h 16.0mph /  25.7km/h 84% 0.00in /  0mm
16:09 57.5 °F /  14.2 °C 53.0 °F /  11.7 °C 29.83in /  1010hPa NE 5.0mph /  8km/h 14.0mph /  22.5km/h 85% 0.00in /  0mm
16:14 57.6 °F /  14.2 °C 52.8 °F /  11.6 °C 29.83in /  1010hPa NE 5.0mph /  8km/h 14.0mph /  22.5km/h 84% 0.00in /  0mm
16:19 57.3 °F /  14.1 °C 52.2 °F /  11.2 °C 29.83in /  1010hPa NE 7.0mph /  11.3km/h 16.0mph /  25.7km/h 83% 0.00in /  0mm
16:24 57.3 °F /  14.1 °C 52.2 °F /  11.2 °C 29.84in /  1010.4hPa NE 8.0mph /  12.9km/h 14.0mph /  22.5km/h 83% 0.00in /  0mm
16:29 57.4 °F /  14.1 °C 52.6 °F /  11.4 °C 29.84in /  1010.4hPa NNE 7.0mph /  11.3km/h 12.0mph /  19.3km/h 84% 0.00in /  0mm
16:34 57.0 °F /  13.9 °C 51.9 °F /  11.1 °C 29.84in /  1010.4hPa NNE 2.0mph /  3.2km/h 15.0mph /  24.1km/h 83% 0.00in /  0mm
16:39 56.7 °F /  13.7 °C 52.2 °F /  11.2 °C 29.84in /  1010.4hPa NE 4.0mph /  6.4km/h 9.0mph /  14.5km/h 85% 0.00in /  0mm
16:44 56.5 °F /  13.6 °C 52.0 °F /  11.1 °C 29.85in /  1010.7hPa NNE 5.0mph /  8km/h 8.0mph /  12.9km/h 85% 0.00in /  0mm
16:49 56.7 °F /  13.7 °C 52.6 °F /  11.4 °C 29.84in /  1010.4hPa NE 3.0mph /  4.8km/h 12.0mph /  19.3km/h 86% 0.00in /  0mm
16:54 56.7 °F /  13.7 °C 52.2 °F /  11.2 °C 29.85in /  1010.7hPa NNE 4.0mph /  6.4km/h 14.0mph /  22.5km/h 85% 0.00in /  0mm
16:59 56.5 °F /  13.6 °C 52.0 °F /  11.1 °C 29.85in /  1010.7hPa NE 6.0mph /  9.7km/h 14.0mph /  22.5km/h 85% 0.00in /  0mm
17:04 56.5 °F /  13.6 °C 52.0 °F /  11.1 °C 29.85in /  1010.7hPa NE 6.0mph /  9.7km/h 13.0mph /  20.9km/h 85% 0.00in /  0mm
17:09 56.4 °F /  13.6 °C 51.9 °F /  11.1 °C 29.85in /  1010.7hPa NE 6.0mph /  9.7km/h 13.0mph /  20.9km/h 85% 0.00in /  0mm
17:14 56.0 °F /  13.3 °C 51.9 °F /  11.1 °C 29.85in /  1010.7hPa NE 6.0mph /  9.7km/h 16.0mph /  25.7km/h 86% 0.00in /  0mm
17:19 55.9 °F /  13.3 °C 52.1 °F /  11.2 °C 29.86in /  1011.1hPa NE 5.0mph /  8km/h 16.0mph /  25.7km/h 87% 0.00in /  0mm
17:24 55.9 °F /  13.3 °C 52.1 °F /  11.2 °C 29.86in /  1011.1hPa NE 5.0mph /  8km/h 11.0mph /  17.7km/h 87% 0.00in /  0mm
17:29 56.0 °F /  13.3 °C 52.2 °F /  11.2 °C 29.86in /  1011.1hPa NNE 4.0mph /  6.4km/h 12.0mph /  19.3km/h 87% 0.00in /  0mm
17:34 55.9 °F /  13.3 °C 52.1 °F /  11.2 °C 29.86in /  1011.1hPa NNE 3.0mph /  4.8km/h 12.0mph /  19.3km/h 87% 0.00in /  0mm
17:39 55.9 °F /  13.3 °C 52.1 °F /  11.2 °C 29.86in /  1011.1hPa NE 6.0mph /  9.7km/h 13.0mph /  20.9km/h 87% 0.00in /  0mm
17:44 55.9 °F /  13.3 °C 52.1 °F /  11.2 °C 29.86in /  1011.1hPa ENE 7.0mph /  11.3km/h 9.0mph /  14.5km/h 87% 0.00in /  0mm
17:49 55.3 °F /  12.9 °C 51.5 °F /  10.8 °C 29.87in /  1011.4hPa NNE 4.0mph /  6.4km/h 13.0mph /  20.9km/h 87% 0.00in /  0mm
17:54 55.0 °F /  12.8 °C 51.2 °F /  10.7 °C 29.87in /  1011.4hPa North 5.0mph /  8km/h 9.0mph /  14.5km/h 87% 0.00in /  0mm
17:59 54.8 °F /  12.7 °C 51.3 °F /  10.7 °C 29.88in /  1011.7hPa NE 3.0mph /  4.8km/h 9.0mph /  14.5km/h 88% 0.00in /  0mm
18:04 54.7 °F /  12.6 °C 51.2 °F /  10.7 °C 29.88in /  1011.7hPa NE 4.0mph /  6.4km/h 10.0mph /  16.1km/h 88% 0.00in /  0mm
18:09 54.6 °F /  12.6 °C 51.1 °F /  10.6 °C 29.88in /  1011.7hPa NE 4.0mph /  6.4km/h 11.0mph /  17.7km/h 88% 0.00in /  0mm
18:14 54.5 °F /  12.5 °C 51.3 °F /  10.7 °C 29.88in /  1011.7hPa NNE 4.0mph /  6.4km/h 11.0mph /  17.7km/h 89% 0.00in /  0mm
18:19 54.3 °F /  12.4 °C 51.1 °F /  10.6 °C 29.89in /  1012.1hPa NNE 4.0mph /  6.4km/h 8.0mph /  12.9km/h 89% 0.00in /  0mm
18:24 54.4 °F /  12.4 °C 51.2 °F /  10.7 °C 29.89in /  1012.1hPa NNE 1.0mph /  1.6km/h 9.0mph /  14.5km/h 89% 0.00in /  0mm
18:29 54.7 °F /  12.6 °C 51.5 °F /  10.8 °C 29.89in /  1012.1hPa NNE 2.0mph /  3.2km/h 6.0mph /  9.7km/h 89% 0.00in /  0mm
18:34 54.8 °F /  12.7 °C 51.6 °F /  10.9 °C 29.89in /  1012.1hPa NNE 3.0mph /  4.8km/h 6.0mph /  9.7km/h 89% 0.00in /  0mm
18:39 54.7 °F /  12.6 °C 51.2 °F /  10.7 °C 29.89in /  1012.1hPa NE 4.0mph /  6.4km/h 10.0mph /  16.1km/h 88% 0.00in /  0mm
18:44 54.7 °F /  12.6 °C 51.2 °F /  10.7 °C 29.90in /  1012.4hPa NE 4.0mph /  6.4km/h 9.0mph /  14.5km/h 88% 0.00in /  0mm
18:49 54.6 °F /  12.6 °C 51.4 °F /  10.8 °C 29.90in /  1012.4hPa NNE 5.0mph /  8km/h 9.0mph /  14.5km/h 89% 0.00in /  0mm
18:54 54.3 °F /  12.4 °C 51.1 °F /  10.6 °C 29.90in /  1012.4hPa North 2.0mph /  3.2km/h 11.0mph /  17.7km/h 89% 0.01in /  0.25mm
18:59 54.2 °F /  12.3 °C 51.0 °F /  10.6 °C 29.90in /  1012.4hPa NE 2.0mph /  3.2km/h 10.0mph /  16.1km/h 89% 0.01in /  0.25mm
19:04 54.1 °F /  12.3 °C 50.9 °F /  10.5 °C 29.91in /  1012.8hPa NNE 4.0mph /  6.4km/h 10.0mph /  16.1km/h 89% 0.01in /  0.25mm
19:09 54.1 °F /  12.3 °C 50.9 °F /  10.5 °C 29.91in /  1012.8hPa NNE 4.0mph /  6.4km/h 10.0mph /  16.1km/h 89% 0.01in /  0.25mm
19:14 54.0 °F /  12.2 °C 50.8 °F /  10.4 °C 29.91in /  1012.8hPa NNE 4.0mph /  6.4km/h 12.0mph /  19.3km/h 89% 0.01in /  0.25mm
19:19 54.0 °F /  12.2 °C 50.8 °F /  10.4 °C 29.91in /  1012.8hPa NNE 4.0mph /  6.4km/h 12.0mph /  19.3km/h 89% 0.01in /  0.25mm
19:24 53.8 °F /  12.1 °C 50.3 °F /  10.2 °C 29.91in /  1012.8hPa NNE 4.0mph /  6.4km/h 11.0mph /  17.7km/h 88% 0.01in /  0.25mm
19:29 53.7 °F /  12.1 °C 50.2 °F /  10.1 °C 29.91in /  1012.8hPa NNE 4.0mph /  6.4km/h 15.0mph /  24.1km/h 88% 0.01in /  0.25mm
19:34 53.7 °F /  12.1 °C 50.2 °F /  10.1 °C 29.92in /  1013.1hPa NNE 3.0mph /  4.8km/h 10.0mph /  16.1km/h 88% 0.01in /  0.25mm
19:39 53.7 °F /  12.1 °C 50.2 °F /  10.1 °C 29.92in /  1013.1hPa NE 3.0mph /  4.8km/h 13.0mph /  20.9km/h 88% 0.01in /  0.25mm
19:44 53.8 °F /  12.1 °C 50.3 °F /  10.2 °C 29.92in /  1013.1hPa NNE 2.0mph /  3.2km/h 13.0mph /  20.9km/h 88% 0.01in /  0.25mm
19:49 53.8 °F /  12.1 °C 50.3 °F /  10.2 °C 29.92in /  1013.1hPa East 11.0mph /  17.7km/h 14.0mph /  22.5km/h 88% 0.01in /  0.25mm
19:54 54.0 °F /  12.2 °C 50.5 °F /  10.3 °C 29.92in /  1013.1hPa NNE 1.0mph /  1.6km/h 11.0mph /  17.7km/h 88% 0.00in /  0mm
19:59 54.1 °F /  12.3 °C 50.3 °F /  10.2 °C 29.92in /  1013.1hPa North 3.0mph /  4.8km/h 6.0mph /  9.7km/h 87% 0.00in /  0mm
20:04 54.1 °F /  12.3 °C 50.3 °F /  10.2 °C 29.92in /  1013.1hPa NNE 4.0mph /  6.4km/h 9.0mph /  14.5km/h 87% 0.00in /  0mm
20:09 54.1 °F /  12.3 °C 50.3 °F /  10.2 °C 29.92in /  1013.1hPa NNE 4.0mph /  6.4km/h 10.0mph /  16.1km/h 87% 0.00in /  0mm
20:14 54.1 °F /  12.3 °C 50.0 °F /  10 °C 29.93in /  1013.4hPa NE 4.0mph /  6.4km/h 10.0mph /  16.1km/h 86% 0.00in /  0mm
20:19 54.0 °F /  12.2 °C 49.9 °F /  9.9 °C 29.93in /  1013.4hPa NE 3.0mph /  4.8km/h 11.0mph /  17.7km/h 86% 0.00in /  0mm
20:24 53.8 °F /  12.1 °C 49.7 °F /  9.8 °C 29.93in /  1013.4hPa NE 7.0mph /  11.3km/h 11.0mph /  17.7km/h 86% 0.00in /  0mm
20:29 53.6 °F /  12 °C 49.8 °F /  9.9 °C 29.93in /  1013.4hPa NE 5.0mph /  8km/h 11.0mph /  17.7km/h 87% 0.00in /  0mm
20:34 53.5 °F /  11.9 °C 49.7 °F /  9.8 °C 29.93in /  1013.4hPa NE 5.0mph /  8km/h 10.0mph /  16.1km/h 87% 0.00in /  0mm
20:39 53.3 °F /  11.8 °C 49.8 °F /  9.9 °C 29.93in /  1013.4hPa NE 5.0mph /  8km/h 10.0mph /  16.1km/h 88% 0.00in /  0mm
20:44 53.2 °F /  11.8 °C 50.0 °F /  10 °C 29.93in /  1013.4hPa NE 4.0mph /  6.4km/h 10.0mph /  16.1km/h 89% 0.00in /  0mm
20:49 52.9 °F /  11.6 °C 49.7 °F /  9.8 °C 29.93in /  1013.4hPa NE 7.0mph /  11.3km/h 10.0mph /  16.1km/h 89% 0.00in /  0mm
20:54 52.8 °F /  11.6 °C 49.6 °F /  9.8 °C 29.94in /  1013.8hPa NE 4.0mph /  6.4km/h 11.0mph /  17.7km/h 89% 0.00in /  0mm
20:59 52.8 °F /  11.6 °C 49.9 °F /  9.9 °C 29.94in /  1013.8hPa NE 3.0mph /  4.8km/h 11.0mph /  17.7km/h 90% 0.00in /  0mm
21:04 52.8 °F /  11.6 °C 49.9 °F /  9.9 °C 29.94in /  1013.8hPa ENE 8.0mph /  12.9km/h 9.0mph /  14.5km/h 90% 0.00in /  0mm
21:09 52.7 °F /  11.5 °C 49.8 °F /  9.9 °C 29.94in /  1013.8hPa NNW 2.0mph /  3.2km/h 10.0mph /  16.1km/h 90% 0.00in /  0mm
21:14 52.6 °F /  11.4 °C 49.8 °F /  9.9 °C 29.94in /  1013.8hPa NNE 3.0mph /  4.8km/h 7.0mph /  11.3km/h 90% 0.00in /  0mm
21:19 52.5 °F /  11.4 °C 49.7 °F /  9.8 °C 29.94in /  1013.8hPa NE 2.0mph /  3.2km/h 7.0mph /  11.3km/h 90% 0.00in /  0mm
21:24 52.4 °F /  11.3 °C 49.6 °F /  9.8 °C 29.94in /  1013.8hPa NNE 5.0mph /  8km/h 10.0mph /  16.1km/h 90% 0.00in /  0mm
21:29 52.3 °F /  11.3 °C 49.8 °F /  9.9 °C 29.95in /  1014.1hPa NE 4.0mph /  6.4km/h 11.0mph /  17.7km/h 91% 0.00in /  0mm
21:34 52.3 °F /  11.3 °C 49.5 °F /  9.7 °C 29.95in /  1014.1hPa NE 4.0mph /  6.4km/h 11.0mph /  17.7km/h 90% 0.00in /  0mm
21:39 52.2 °F /  11.2 °C 49.4 °F /  9.7 °C 29.95in /  1014.1hPa NE 4.0mph /  6.4km/h 10.0mph /  16.1km/h 90% 0.00in /  0mm
21:49 52.2 °F /  11.2 °C 49.4 °F /  9.7 °C 29.95in /  1014.1hPa NE 4.0mph /  6.4km/h 14.0mph /  22.5km/h 90% 0.00in /  0mm
21:54 52.1 °F /  11.2 °C 49.3 °F /  9.6 °C 29.95in /  1014.1hPa NE 4.0mph /  6.4km/h 5.0mph /  8km/h 90% 0.00in /  0mm
21:59 52.0 °F /  11.1 °C 49.2 °F /  9.6 °C 29.95in /  1014.1hPa NE 3.0mph /  4.8km/h 9.0mph /  14.5km/h 90% 0.00in /  0mm
22:04 52.0 °F /  11.1 °C 49.2 °F /  9.6 °C 29.96in /  1014.4hPa ENE 2.0mph /  3.2km/h 8.0mph /  12.9km/h 90% 0.00in /  0mm
22:09 52.0 °F /  11.1 °C 49.2 °F /  9.6 °C 29.96in /  1014.4hPa East 9.0mph /  14.5km/h 9.0mph /  14.5km/h 90% 0.00in /  0mm
22:14 52.1 °F /  11.2 °C 49.3 °F /  9.6 °C 29.96in /  1014.4hPa NE 4.0mph /  6.4km/h 11.0mph /  17.7km/h 90% 0.00in /  0mm
22:19 52.1 °F /  11.2 °C 49.6 °F /  9.8 °C 29.96in /  1014.4hPa ENE 1.0mph /  1.6km/h 9.0mph /  14.5km/h 91% 0.00in /  0mm
22:24 52.1 °F /  11.2 °C 49.6 °F /  9.8 °C 29.96in /  1014.4hPa NE 2.0mph /  3.2km/h 6.0mph /  9.7km/h 91% 0.00in /  0mm
22:29 52.0 °F /  11.1 °C 49.5 °F /  9.7 °C 29.97in /  1014.8hPa NE 2.0mph /  3.2km/h 7.0mph /  11.3km/h 91% 0.00in /  0mm
22:34 52.0 °F /  11.1 °C 49.5 °F /  9.7 °C 29.97in /  1014.8hPa NE 2.0mph /  3.2km/h 9.0mph /  14.5km/h 91% 0.00in /  0mm
22:39 52.0 °F /  11.1 °C 49.5 °F /  9.7 °C 29.97in /  1014.8hPa NE 3.0mph /  4.8km/h 11.0mph /  17.7km/h 91% 0.01in /  0.25mm
22:44 51.9 °F /  11.1 °C 49.4 °F /  9.7 °C 29.97in /  1014.8hPa NE 4.0mph /  6.4km/h 11.0mph /  17.7km/h 91% 0.01in /  0.25mm
22:49 52.0 °F /  11.1 °C 49.7 °F /  9.8 °C 29.97in /  1014.8hPa NE 2.0mph /  3.2km/h 11.0mph /  17.7km/h 92% 0.01in /  0.25mm
22:54 51.9 °F /  11.1 °C 49.6 °F /  9.8 °C 29.97in /  1014.8hPa NNE 1.0mph /  1.6km/h 6.0mph /  9.7km/h 92% 0.01in /  0.25mm
22:59 51.7 °F /  10.9 °C 49.2 °F /  9.6 °C 29.97in /  1014.8hPa NNE 3.0mph /  4.8km/h 9.0mph /  14.5km/h 91% 0.01in /  0.25mm
23:04 51.6 °F /  10.9 °C 49.1 °F /  9.5 °C 29.97in /  1014.8hPa NE 3.0mph /  4.8km/h 6.0mph /  9.7km/h 91% 0.01in /  0.25mm
23:09 51.4 °F /  10.8 °C 48.9 °F /  9.4 °C 29.97in /  1014.8hPa NNE 3.0mph /  4.8km/h 11.0mph /  17.7km/h 91% 0.01in /  0.25mm
23:14 51.3 °F /  10.7 °C 49.1 °F /  9.5 °C 29.97in /  1014.8hPa NE 8.0mph /  12.9km/h 11.0mph /  17.7km/h 92% 0.01in /  0.25mm
23:19 51.2 °F /  10.7 °C 49.0 °F /  9.4 °C 29.98in /  1015.1hPa ENE 7.0mph /  11.3km/h 11.0mph /  17.7km/h 92% 0.01in /  0.25mm
23:24 51.2 °F /  10.7 °C 49.0 °F /  9.4 °C 29.98in /  1015.1hPa NE 2.0mph /  3.2km/h 9.0mph /  14.5km/h 92% 0.01in /  0.25mm
23:29 51.3 °F /  10.7 °C 49.1 °F /  9.5 °C 29.98in /  1015.1hPa NE 4.0mph /  6.4km/h 10.0mph /  16.1km/h 92% 0.01in /  0.25mm
23:34 51.2 °F /  10.7 °C 49.0 °F /  9.4 °C 29.98in /  1015.1hPa NE 5.0mph /  8km/h 12.0mph /  19.3km/h 92% 0.01in /  0.25mm
23:39 51.3 °F /  10.7 °C 49.1 °F /  9.5 °C 29.98in /  1015.1hPa NE 5.0mph /  8km/h 12.0mph /  19.3km/h 92% 0.00in /  0mm
23:44 51.4 °F /  10.8 °C 49.2 °F /  9.6 °C 29.98in /  1015.1hPa NE 3.0mph /  4.8km/h 10.0mph /  16.1km/h 92% 0.00in /  0mm
23:49 51.4 °F /  10.8 °C 49.2 °F /  9.6 °C 29.98in /  1015.1hPa NNE 2.0mph /  3.2km/h 5.0mph /  8km/h 92% 0.01in /  0.25mm
23:54 51.4 °F /  10.8 °C 49.2 °F /  9.6 °C 29.98in /  1015.1hPa NE 2.0mph /  3.2km/h 5.0mph /  8km/h 92% 0.01in /  0.25mm
23:59 51.3 °F /  10.7 °C 49.1 °F /  9.5 °C 29.98in /  1015.1hPa ENE 5.0mph /  8km/h 9.0mph /  14.5km/h 92% 0.01in /  0.25mm
Buffalo, New York, USA
Compliments of Weather Underground - 2.5 mb